VTBD/DMK METAR and TAF weather

Enter ICAO airport designator
Station Type Date Time Source
VTBD METAR 2019/02/16 01:00 UTC NOAA

VTBD 160100Z 08004KT 040V120 9000 FEW020TCU SCT030 27/25 Q1015 NOSIG


Station Type Date Time Source
VTBD Decoded METAR 2019/02/16 01:00 UTC NOAA

Don Muang, Thailand (VTBD) 13-55N 100-36E 12M
Feb 15, 2019 - 08:00 PM EST / 2019.02.16 0100 UTC
Wind: from the E (080 degrees) at 5 MPH (4 KT) (direction variable):0
Visibility: 5 mile(s):0
Sky conditions: partly cloudy
Weather: Towering cumulus clouds observed
Temperature: 80 F (27 C)
Dew Point: 77 F (25 C)
Relative Humidity: 88%
Pressure (altimeter): 29.97 in. Hg (1015 hPa)
ob: VTBD 160100Z 08004KT 040V120 9000 FEW020TCU SCT030 27/25 Q1015 NOSIG
cycle: 1

Station Type Date Time Source
VTBD TAF 2019/02/15 18:36 UTC NOAA

TAF TAF VTBD 151700Z 1518/1624 19008KT 8000 FEW020 SCT040
BECMG 1520/1522 13005KT
BECMG 1602/1604 19008KT


Example: see airport list